Strona główna
METAR-TAF:

METAR-TAF

Lotnisko :

Ułan Bator, Mongolia

Port lotniczy Ułan Bator

Szerokość geograficzna: 47-55N, Długość geograficzna: 106-52E, wysokość: 1306 m

Aktualna obserwacja pogody

Raport powstał 12 minut temu, godzina 05:30 UTC
Wiatr 4 kt od południe
Temperatura -18°C
Wilgotność 77%
Ciśnienie 1007 hPa
Widzialność: 3000 m
Przerywane chmury na wysokości 25000 ft
dym

METAR: ZMUB 180530Z 17002MPS 3000NW FU BKN250 M18/M21 Q1007 NOSIG RMK QFE649.3 70 NW MO

czas: 13:42 (05:42 UTC)

Prognoza

Raport powstał 1 godzina i 2 minut temu, godzina 04:40 UTC
Prognoza ważna od 18 godzina 06 UTC do 19 godzina 12 UTC
Wiatr 4 kt z kierunków zmiennych
Widzialność: 6000 m
Rozproszone chmury na wysokości 10000 ft
Stopniowe zmiany
od 18 godzina 23 UTC do 19 godzina 01 UTC
Widzialność: 3000 m
dym
Stopniowe zmiany
od 19 godzina 05 UTC do 19 godzina 07 UTC
Widzialność: 6000 m

TAF: ZMUB 180440Z 1806/1912 VRB02MPS 6000 SCT100 TXM17/1807Z TNM31/1822Z BECMG 1823/1901 3000 FU BECMG 1905/1907 6000

Obserwacja i prognoza pogody dla ponad 4000 lotnisk (raport METAR i TAF).

Dostępne stacje oznaczono żółtymi i czerwonymi punktami na mapie.

Najedź kursorem aby zobaczyć nazwę stacji.

Kliknij aby zobaczyć obserwacje i prognozy pogody.

Aby zmienić mapę: kliknij na zielony przycisk z czarnym krzyżykiem, aby powiększyć; na zielony przycisk z myślnikiem, aby pomniejszyć; na zielone strzałki, aby przejść do map sąsiednich.


METAR-TAF: